Pemaquid Point Lighthouse, ME

43° 50' 13"N, 69° 30' 22"W, Elevation 40 ft.
Eastern Time

Hourly observations for the last 72 hours

Date Time Temperature (°F) Humi-
dity

(%)
Wind
(mph)
Pressure Rain (in) Sun
(W/m2)
UV ET
(in)
Air Dew 6 Hour 1 Hr 3 Hr 6 Hr Day
Alt
(in)
Sea
Level

(mb)
Max Min
16 16:00 25.8 21.4 83 W 3 G 9 30.45 1031.1 0.00 19 0.0 0.022
16 15:00 27.2 22.1 81 WSW 5 G 10 30.45 1031.1 0.00 69 0.0 0.020
16 14:00 25.7 19.5 77 W 4 G 11 30.45 1031.2 0.00 165 0.5 0.017
16 13:00 25.0 18.2 25.7 15.2 75 SW 5 G 9 30.46 1031.4 0.00 230 0.8 0.012
16 12:00 24.2 17.1 74 SW 4 G 8 30.47 1032.0 0.00 425 1.1 0.007
16 11:00 23.1 15.7 73 SW 2 G 5 30.51 1033.1 0.00 425 1.0 0.003
16 10:00 18.9 12.9 77 WNW 3 G 10 30.53 1033.8 0.00 362 0.7 0.001
16 09:00 16.2 10.5 78 N 1 G 5 30.52 1033.5 0.00 53 0.0 0.000
16 08:00 15.3 10.0 79 NNW 3 G 8 30.52 1033.5 0.00 33 0.0 0.000
16 07:00 15.3 10.2 16.6 15.2 80 N 7 G 11 30.52 1033.5 0.00 0 0.0 0.000
16 06:00 15.6 10.5 80 NNW 5 G 8 30.50 1033.0 0.00 0 0.0 0.000
16 05:00 15.5 10.4 80 NNW 4 G 8 30.49 1032.5 0.00 0 0.0 0.000
16 04:00 15.9 11.1 81 NNW 4 G 9 30.50 1032.8 0.00 0 0.0 0.000
16 03:00 16.1 11.6 82 NNW 4 G 8 30.49 1032.6 0.00 0 0.0 0.000
16 02:00 16.4 12.1 83 N 4 G 12 30.50 1033.0 0.00 0 0.0 0.000
16 01:00 16.6 12.3 17.6 16.1 83 N 7 G 11 30.49 1032.6 0.00 0 0.0 0.000
16 00:00 16.8 12.5 83 NNE 4 G 10 30.51 1033.1 0.00 0 0.0 0.032
15 23:00 17.3 12.2 80 N 6 G 12 30.54 1034.1 0.00 0 0.0 0.031
15 22:00 17.4 11.7 78 NNE 2 G 11 30.55 1034.6 0.00 0 0.0 0.030
15 21:00 17.6 11.9 78 N 5 G 13 30.55 1034.6 0.00 0 0.0 0.029
15 20:00 17.0 11.3 78 N 10 G 15 30.56 1034.9 0.00 0 0.0 0.028
15 19:00 16.1 10.7 16.1 15.2 79 N 10 G 17 30.58 1035.7 0.00 0 0.0 0.027
15 18:00 15.6 10.0 78 N 12 G 21 30.60 1036.1 0.00 0 0.0 0.026
15 17:00 15.9 9.4 75 N 8 G 13 30.61 1036.7 0.00 0 0.0 0.025
15 16:00 15.9 8.5 72 N 6 G 13 30.63 1037.4 0.00 12 0.0 0.024
15 15:00 15.6 6.3 66 N 12 G 19 30.62 1036.8 0.00 30 0.0 0.022
15 14:00 15.3 3.9 60 N 11 G 18 30.62 1036.9 0.00 90 0.0 0.020
15 13:00 15.9 2.6 16.0 3.8 55 N 7 G 17 30.66 1038.2 0.00 74 0.0 0.017
15 12:00 14.5 -1.2 49 NNW 9 G 18 30.70 1039.8 0.00 163 0.9 0.013
15 11:00 12.7 -0.8 54 N 5 G 15 30.75 1041.3 0.00 390 1.0 0.009
15 10:00 10.1 -1.7 58 N 8 G 12 30.78 1042.4 0.00 401 0.8 0.007
15 09:00 6.3 -2.6 66 N 7 G 15 30.81 1043.2 0.00 65 0.0 0.006
15 08:00 4.2 -3.7 69 N 8 G 13 30.80 1042.9 0.00 42 0.0 0.005
15 07:00 4.2 -4.0 7.3 4.2 68 N 8 G 14 30.78 1042.5 0.00 0 0.0 0.005
15 06:00 4.4 -3.5 69 N 7 G 14 30.78 1042.4 0.00 0 0.0 0.004
15 05:00 4.7 -2.1 73 N 7 G 12 30.78 1042.5 0.00 0 0.0 0.004
15 04:00 5.3 -1.5 73 N 7 G 14 30.78 1042.4 0.00 0 0.0 0.003
15 03:00 5.8 -1.3 72 N 9 G 14 30.75 1041.5 0.00 0 0.0 0.002
15 02:00 6.4 -0.7 72 N 6 G 15 30.75 1041.4 0.00 0 0.0 0.001
15 01:00 7.2 -0.2 13.9 7.2 71 N 10 G 19 30.75 1041.2 0.00 0 0.0 0.000
15 00:00 8.3 0.2 69 N 9 G 15 30.74 1040.8 0.00 0 0.0 0.036
14 23:00 9.2 0.5 67 N 6 G 13 30.75 1041.5 0.00 0 0.0 0.035
14 22:00 10.4 0.3 63 N 8 G 16 30.74 1040.9 0.00 0 0.0 0.034
14 21:00 11.5 -0.1 59 N 6 G 11 30.73 1040.6 0.00 0 0.0 0.033
14 20:00 12.8 0.1 56 N 8 G 14 30.71 1040.1 0.00 0 0.0 0.032
14 19:00 13.7 -0.3 19.9 13.6 53 N 5 G 8 30.69 1039.4 0.00 0 0.0 0.031
14 18:00 15.0 -0.7 49 N 5 G 10 30.66 1038.4 0.00 0 0.0 0.030
14 17:00 16.1 -1.1 46 N 4 G 10 30.63 1037.3 0.00 0 0.0 0.029
14 16:00 17.9 -1.9 41 N 7 G 18 30.59 1036.1 0.00 33 0.0 0.027
14 15:00 19.3 -1.1 40 N 7 G 16 30.57 1035.4 0.00 67 0.0 0.024
14 14:00 19.7 1.3 44 NNW 8 G 20 30.57 1035.2 0.00 362 0.6 0.019
14 13:00 18.2 3.1 18.2 10.4 51 N 8 G 16 30.56 1034.8 0.00 192 0.9 0.015
14 12:00 16.6 2.8 54 NNW 9 G 18 30.56 1034.7 0.00 475 1.3 0.011
14 11:00 16.2 5.5 62 NNW 10 G 15 30.55 1034.6 0.00 332 1.1 0.008
14 10:00 14.3 4.3 64 N 11 G 19 30.56 1035.0 0.00 485 0.9 0.006
14 09:00 12.3 5.0 72 NNW 7 G 15 30.54 1034.2 0.00 91 0.0 0.005
14 08:00 10.9 4.8 76 NNW 8 G 11 30.51 1033.3 0.00 21 0.0 0.005
14 07:00 10.6 4.5 15.3 10.6 76 N 5 G 7 30.47 1031.8 0.00 0 0.0 0.005
14 06:00 10.8 4.7 76 NNW 3 G 6 30.43 1030.6 0.00 0 0.0 0.005
14 05:00 11.4 4.7 74 NNW 7 G 13 30.40 1029.6 0.00 0 0.0 0.004
14 04:00 12.0 5.9 76 N 6 G 15 30.37 1028.4 0.00 0 0.0 0.003
14 03:00 13.2 7.3 77 NNW 10 G 15 30.34 1027.4 0.00 0 0.0 0.002
14 02:00 14.3 8.1 76 NNW 10 G 16 30.32 1026.9 0.00 0 0.0 0.001
14 01:00 15.2 8.7 24.9 15.2 75 NNW 6 G 18 30.27 1025.3 0.00 0 0.0 0.000
14 00:00 16.7 10.5 76 NW 7 G 16 30.25 1024.5 1.21 0 0.0 0.023
13 23:00 18.0 12.0 77 NW 11 G 16 30.22 1023.4 1.21 0 0.0 0.022
13 22:00 19.8 13.8 77 NNW 9 G 17 30.18 1022.0 1.21 0 0.0 0.021
13 21:00 21.1 15.3 78 NNW 7 G 15 30.13 1020.4 1.21 0 0.0 0.020
13 20:00 22.9 16.8 77 NW 10 G 19 30.11 1019.6 1.21 0 0.0 0.019
13 19:00 24.9 18.4 33.1 24.9 76 N 6 G 19 30.05 1017.8 1.21 0 0.0 0.018
13 18:00 25.6 19.4 77 N 7 G 15 29.99 1015.5 1.21 0 0.0 0.017
13 17:00 26.1 19.9 77 NNW 9 G 24 29.92 1013.1 1.21 0 0.0 0.016

Data generated by WxSolution Version 1.9.0.6, Build 2017.01.14.